sensor_id;sensor_type;location;lat;lon;timestamp;pressure;altitude;pressure_sealevel;temperature;humidity
21623;BME280;10973;46.706;12.340;2023-04-10T00:01:08;87734.47;;;2.78;41.71
21623;BME280;10973;46.706;12.340;2023-04-10T00:03:35;87727.59;;;2.73;41.86
21623;BME280;10973;46.706;12.340;2023-04-10T00:06:03;87726.38;;;2.71;41.66
21623;BME280;10973;46.706;12.340;2023-04-10T00:08:30;87718.75;;;2.66;41.78
21623;BME280;10973;46.706;12.340;2023-04-10T00:10:58;87717.88;;;2.62;41.93
21623;BME280;10973;46.706;12.340;2023-04-10T00:13:25;87713.63;;;2.57;41.84
21623;BME280;10973;46.706;12.340;2023-04-10T00:15:53;87715.94;;;2.50;42.25
21623;BME280;10973;46.706;12.340;2023-04-10T00:18:20;87710.31;;;2.48;42.17
21623;BME280;10973;46.706;12.340;2023-04-10T00:20:47;87708.34;;;2.45;41.99
21623;BME280;10973;46.706;12.340;2023-04-10T00:23:14;87710.19;;;2.45;42.28
21623;BME280;10973;46.706;12.340;2023-04-10T00:25:41;87706.19;;;2.47;42.31
21623;BME280;10973;46.706;12.340;2023-04-10T00:28:08;87706.63;;;2.49;42.20
21623;BME280;10973;46.706;12.340;2023-04-10T00:30:35;87704.31;;;2.48;42.25
21623;BME280;10973;46.706;12.340;2023-04-10T00:33:03;87701.28;;;2.46;42.18
21623;BME280;10973;46.706;12.340;2023-04-10T00:35:30;87700.22;;;2.47;42.60
21623;BME280;10973;46.706;12.340;2023-04-10T00:37:57;87696.53;;;2.48;42.38
21623;BME280;10973;46.706;12.340;2023-04-10T00:40:24;87687.53;;;2.45;42.51
21623;BME280;10973;46.706;12.340;2023-04-10T00:42:52;87694.13;;;2.43;42.78
21623;BME280;10973;46.706;12.340;2023-04-10T00:45:19;87685.72;;;2.37;42.88
21623;BME280;10973;46.706;12.340;2023-04-10T00:47:46;87690.16;;;2.37;42.79
21623;BME280;10973;46.706;12.340;2023-04-10T00:50:14;87693.84;;;2.36;42.72
21623;BME280;10973;46.706;12.340;2023-04-10T00:52:42;87692.19;;;2.31;42.66
21623;BME280;10973;46.706;12.340;2023-04-10T00:55:10;87702.44;;;2.28;42.53
21623;BME280;10973;46.706;12.340;2023-04-10T00:57:40;87699.28;;;2.22;42.32
21623;BME280;10973;46.706;12.340;2023-04-10T01:00:11;87700.84;;;2.14;42.77
21623;BME280;10973;46.706;12.340;2023-04-10T01:02:39;87705.31;;;2.05;43.02
21623;BME280;10973;46.706;12.340;2023-04-10T01:05:09;87697.78;;;2.12;43.35
21623;BME280;10973;46.706;12.340;2023-04-10T01:08:08;87702.03;;;2.17;42.87
21623;BME280;10973;46.706;12.340;2023-04-10T01:11:00;87690.31;;;2.11;43.00
21623;BME280;10973;46.706;12.340;2023-04-10T01:14:02;87693.19;;;2.09;43.59
21623;BME280;10973;46.706;12.340;2023-04-10T01:16:42;87691.25;;;2.06;43.23
21623;BME280;10973;46.706;12.340;2023-04-10T01:22:14;87694.94;;;1.97;43.38
21623;BME280;10973;46.706;12.340;2023-04-10T01:30:34;87693.56;;;1.91;43.51
21623;BME280;10973;46.706;12.340;2023-04-10T01:33:07;87685.97;;;1.86;43.64
21623;BME280;10973;46.706;12.340;2023-04-10T01:35:37;87687.03;;;1.85;43.61
21623;BME280;10973;46.706;12.340;2023-04-10T01:38:06;87685.53;;;1.84;43.61
21623;BME280;10973;46.706;12.340;2023-04-10T01:40:38;87685.53;;;1.84;43.92
21623;BME280;10973;46.706;12.340;2023-04-10T01:43:09;87679.84;;;1.82;43.48
21623;BME280;10973;46.706;12.340;2023-04-10T01:45:38;87676.34;;;1.78;43.70
21623;BME280;10973;46.706;12.340;2023-04-10T01:48:07;87680.34;;;1.75;43.51
21623;BME280;10973;46.706;12.340;2023-04-10T01:50:35;87687.56;;;1.70;43.79
21623;BME280;10973;46.706;12.340;2023-04-10T01:53:05;87675.34;;;1.70;43.67
21623;BME280;10973;46.706;12.340;2023-04-10T01:55:35;87683.88;;;1.71;43.59
21623;BME280;10973;46.706;12.340;2023-04-10T01:58:03;87684.50;;;1.68;43.79
21623;BME280;10973;46.706;12.340;2023-04-10T02:00:40;87671.06;;;1.66;43.54
21623;BME280;10973;46.706;12.340;2023-04-10T02:03:09;87679.03;;;1.61;43.44
21623;BME280;10973;46.706;12.340;2023-04-10T02:06:10;87676.47;;;1.52;43.63
21623;BME280;10973;46.706;12.340;2023-04-10T02:08:50;87676.75;;;1.51;43.89
21623;BME280;10973;46.706;12.340;2023-04-10T02:12:05;87679.22;;;1.47;43.92
21623;BME280;10973;46.706;12.340;2023-04-10T02:14:37;87676.91;;;1.45;43.59
21623;BME280;10973;46.706;12.340;2023-04-10T02:17:08;87671.91;;;1.40;43.68
21623;BME280;10973;46.706;12.340;2023-04-10T02:19:41;87679.84;;;1.35;44.05
21623;BME280;10973;46.706;12.340;2023-04-10T02:22:09;87683.03;;;1.32;44.07
21623;BME280;10973;46.706;12.340;2023-04-10T02:24:36;87676.94;;;1.37;44.25
21623;BME280;10973;46.706;12.340;2023-04-10T02:27:03;87679.06;;;1.35;44.24
21623;BME280;10973;46.706;12.340;2023-04-10T02:29:31;87685.19;;;1.30;44.19
21623;BME280;10973;46.706;12.340;2023-04-10T02:31:59;87684.28;;;1.26;44.23
21623;BME280;10973;46.706;12.340;2023-04-10T02:34:27;87681.69;;;1.26;44.23
21623;BME280;10973;46.706;12.340;2023-04-10T02:36:54;87684.91;;;1.23;44.47
21623;BME280;10973;46.706;12.340;2023-04-10T02:39:21;87693.00;;;1.22;44.33
21623;BME280;10973;46.706;12.340;2023-04-10T02:41:48;87695.13;;;1.20;44.59
21623;BME280;10973;46.706;12.340;2023-04-10T02:44:15;87692.09;;;1.18;44.41
21623;BME280;10973;46.706;12.340;2023-04-10T02:46:43;87692.09;;;1.18;44.63
21623;BME280;10973;46.706;12.340;2023-04-10T02:49:10;87689.78;;;1.16;44.64
21623;BME280;10973;46.706;12.340;2023-04-10T02:51:37;87695.59;;;1.13;44.49
21623;BME280;10973;46.706;12.340;2023-04-10T02:54:04;87699.13;;;1.09;44.24
21623;BME280;10973;46.706;12.340;2023-04-10T02:56:35;87700.19;;;1.08;44.45
21623;BME280;10973;46.706;12.340;2023-04-10T02:59:02;87693.31;;;1.03;44.48
21623;BME280;10973;46.706;12.340;2023-04-10T03:01:29;87692.09;;;1.01;44.37
21623;BME280;10973;46.706;12.340;2023-04-10T03:03:57;87691.63;;;0.99;44.38
21623;BME280;10973;46.706;12.340;2023-04-10T03:06:25;87690.88;;;0.98;44.42
21623;BME280;10973;46.706;12.340;2023-04-10T03:08:52;87687.50;;;0.98;44.99
21623;BME280;10973;46.706;12.340;2023-04-10T03:11:19;87685.22;;;0.96;45.02
21623;BME280;10973;46.706;12.340;2023-04-10T03:13:47;87687.06;;;0.96;45.14
21623;BME280;10973;46.706;12.340;2023-04-10T03:16:15;87681.88;;;0.96;45.19
21623;BME280;10973;46.706;12.340;2023-04-10T03:18:42;87689.50;;;0.92;45.09
21623;BME280;10973;46.706;12.340;2023-04-10T03:21:09;87680.97;;;0.92;44.73
21623;BME280;10973;46.706;12.340;2023-04-10T03:23:37;87690.09;;;0.89;44.91
21623;BME280;10973;46.706;12.340;2023-04-10T03:26:04;87683.88;;;0.82;45.01
21623;BME280;10973;46.706;12.340;2023-04-10T03:28:31;87690.25;;;0.84;44.87
21623;BME280;10973;46.706;12.340;2023-04-10T03:30:59;87677.78;;;0.86;45.01
21623;BME280;10973;46.706;12.340;2023-04-10T03:33:26;87688.44;;;0.85;45.21
21623;BME280;10973;46.706;12.340;2023-04-10T03:35:54;87692.13;;;0.84;44.94
21623;BME280;10973;46.706;12.340;2023-04-10T03:38:21;87692.41;;;0.82;44.42
21623;BME280;10973;46.706;12.340;2023-04-10T03:40:49;87692.56;;;0.77;44.85
21623;BME280;10973;46.706;12.340;2023-04-10T03:43:16;87690.13;;;0.72;45.46
21623;BME280;10973;46.706;12.340;2023-04-10T03:45:43;87689.22;;;0.68;45.56
21623;BME280;10973;46.706;12.340;2023-04-10T03:48:10;87690.72;;;0.69;45.43
21623;BME280;10973;46.706;12.340;2023-04-10T03:50:38;87688.13;;;0.69;45.16
21623;BME280;10973;46.706;12.340;2023-04-10T03:53:05;87691.63;;;0.64;45.68
21623;BME280;10973;46.706;12.340;2023-04-10T03:55:32;87694.22;;;0.64;45.66
21623;BME280;10973;46.706;12.340;2023-04-10T03:57:59;87695.00;;;0.65;45.70
21623;BME280;10973;46.706;12.340;2023-04-10T04:00:27;87691.94;;;0.71;45.60
21623;BME280;10973;46.706;12.340;2023-04-10T04:02:54;87692.53;;;0.68;45.11
21623;BME280;10973;46.706;12.340;2023-04-10T04:05:23;87690.56;;;0.65;44.91
21623;BME280;10973;46.706;12.340;2023-04-10T04:07:50;87686.00;;;0.62;45.32
21623;BME280;10973;46.706;12.340;2023-04-10T04:10:18;87689.03;;;0.64;45.47
21623;BME280;10973;46.706;12.340;2023-04-10T04:12:45;87683.09;;;0.64;45.64
21623;BME280;10973;46.706;12.340;2023-04-10T04:15:12;87697.72;;;0.60;45.77
21623;BME280;10973;46.706;12.340;2023-04-10T04:17:40;87694.09;;;0.61;45.74
21623;BME280;10973;46.706;12.340;2023-04-10T04:20:09;87695.72;;;0.57;45.77
21623;BME280;10973;46.706;12.340;2023-04-10T04:22:37;87698.31;;;0.57;45.85
21623;BME280;10973;46.706;12.340;2023-04-10T04:25:04;87700.31;;;0.60;45.91
21623;BME280;10973;46.706;12.340;2023-04-10T04:27:32;87695.72;;;0.57;45.87
21623;BME280;10973;46.706;12.340;2023-04-10T04:29:59;87698.50;;;0.60;45.78
21623;BME280;10973;46.706;12.340;2023-04-10T04:32:28;87692.84;;;0.58;45.85
21623;BME280;10973;46.706;12.340;2023-04-10T04:34:55;87702.00;;;0.56;46.06
21623;BME280;10973;46.706;12.340;2023-04-10T04:37:22;87700.47;;;0.55;45.72
21623;BME280;10973;46.706;12.340;2023-04-10T04:39:50;87690.25;;;0.50;45.76
21623;BME280;10973;46.706;12.340;2023-04-10T04:42:17;87704.28;;;0.49;46.06
21623;BME280;10973;46.706;12.340;2023-04-10T04:44:44;87706.09;;;0.48;45.91
21623;BME280;10973;46.706;12.340;2023-04-10T04:47:11;87704.13;;;0.45;46.12
21623;BME280;10973;46.706;12.340;2023-04-10T04:49:41;87705.78;;;0.41;45.83
21623;BME280;10973;46.706;12.340;2023-04-10T04:52:08;87708.06;;;0.34;45.63
21623;BME280;10973;46.706;12.340;2023-04-10T04:54:35;87710.50;;;0.31;46.00
21623;BME280;10973;46.706;12.340;2023-04-10T04:57:03;87712.94;;;0.27;46.07
21623;BME280;10973;46.706;12.340;2023-04-10T04:59:30;87722.34;;;0.23;46.10
21623;BME280;10973;46.706;12.340;2023-04-10T05:02:01;87713.84;;;0.23;46.16
21623;BME280;10973;46.706;12.340;2023-04-10T05:04:29;87726.16;;;0.17;46.30
21623;BME280;10973;46.706;12.340;2023-04-10T05:06:56;87726.63;;;0.19;46.54
21623;BME280;10973;46.706;12.340;2023-04-10T05:09:23;87735.16;;;0.20;46.60
21623;BME280;10973;46.706;12.340;2023-04-10T05:11:51;87735.94;;;0.20;46.19
21623;BME280;10973;46.706;12.340;2023-04-10T05:14:19;87735.47;;;0.18;46.12
21623;BME280;10973;46.706;12.340;2023-04-10T05:16:52;87734.09;;;0.21;46.35
21623;BME280;10973;46.706;12.340;2023-04-10T05:19:21;87735.94;;;0.20;46.57
21623;BME280;10973;46.706;12.340;2023-04-10T05:21:48;87737.28;;;0.18;46.66
21623;BME280;10973;46.706;12.340;2023-04-10T05:24:15;87747.66;;;0.18;46.57
21623;BME280;10973;46.706;12.340;2023-04-10T05:26:43;87736.38;;;0.14;46.76
21623;BME280;10973;46.706;12.340;2023-04-10T05:29:10;87740.03;;;0.13;46.63
21623;BME280;10973;46.706;12.340;2023-04-10T05:31:37;87748.84;;;0.12;46.76
21623;BME280;10973;46.706;12.340;2023-04-10T05:34:05;87744.56;;;0.07;46.72
21623;BME280;10973;46.706;12.340;2023-04-10T05:36:32;87753.41;;;0.06;46.67
21623;BME280;10973;46.706;12.340;2023-04-10T05:38:59;87751.59;;;0.07;46.72
21623;BME280;10973;46.706;12.340;2023-04-10T05:41:26;87752.34;;;0.07;46.95
21623;BME280;10973;46.706;12.340;2023-04-10T05:43:53;87754.31;;;0.02;47.02
21623;BME280;10973;46.706;12.340;2023-04-10T05:46:21;87752.63;;;0.06;46.91
21623;BME280;10973;46.706;12.340;2023-04-10T05:48:49;87757.34;;;0.04;47.13
21623;BME280;10973;46.706;12.340;2023-04-10T05:51:16;87761.94;;;0.07;47.16
21623;BME280;10973;46.706;12.340;2023-04-10T05:53:43;87762.88;;;0.11;46.83
21623;BME280;10973;46.706;12.340;2023-04-10T05:56:11;87763.66;;;0.11;46.82
21623;BME280;10973;46.706;12.340;2023-04-10T05:58:38;87765.16;;;0.12;47.03
21623;BME280;10973;46.706;12.340;2023-04-10T06:01:05;87760.63;;;0.18;46.81
21623;BME280;10973;46.706;12.340;2023-04-10T06:03:33;87765.06;;;0.26;47.08
21623;BME280;10973;46.706;12.340;2023-04-10T06:06:01;87763.25;;;0.35;47.03
21623;BME280;10973;46.706;12.340;2023-04-10T06:08:28;87758.69;;;0.40;46.85
21623;BME280;10973;46.706;12.340;2023-04-10T06:10:55;87759.78;;;0.48;46.75
21623;BME280;10973;46.706;12.340;2023-04-10T06:13:22;87766.06;;;0.55;46.96
21623;BME280;10973;46.706;12.340;2023-04-10T06:15:50;87767.91;;;0.63;47.40
21623;BME280;10973;46.706;12.340;2023-04-10T06:18:18;87765.47;;;0.76;47.17
21623;BME280;10973;46.706;12.340;2023-04-10T06:20:45;87769.63;;;0.85;47.00
21623;BME280;10973;46.706;12.340;2023-04-10T06:23:12;87763.81;;;0.97;46.85
21623;BME280;10973;46.706;12.340;2023-04-10T06:25:40;87765.81;;;1.08;46.75
21623;BME280;10973;46.706;12.340;2023-04-10T06:28:07;87755.28;;;1.22;46.42
21623;BME280;10973;46.706;12.340;2023-04-10T06:30:35;87759.22;;;1.36;46.55
21623;BME280;10973;46.706;12.340;2023-04-10T06:33:02;87749.78;;;1.49;46.16
21623;BME280;10973;46.706;12.340;2023-04-10T06:35:30;87744.41;;;1.63;45.83
21623;BME280;10973;46.706;12.340;2023-04-10T06:37:57;87748.97;;;1.74;45.95
21623;BME280;10973;46.706;12.340;2023-04-10T06:40:25;87749.84;;;1.87;45.57
21623;BME280;10973;46.706;12.340;2023-04-10T06:42:52;87746.59;;;1.98;45.68
21623;BME280;10973;46.706;12.340;2023-04-10T06:45:19;87743.03;;;2.11;45.19
21623;BME280;10973;46.706;12.340;2023-04-10T06:47:46;87742.38;;;2.23;45.09
21623;BME280;10973;46.706;12.340;2023-04-10T06:50:13;87742.50;;;2.35;45.12
21623;BME280;10973;46.706;12.340;2023-04-10T06:52:41;87741.84;;;2.47;45.33
21623;BME280;10973;46.706;12.340;2023-04-10T06:55:08;87746.81;;;2.60;44.98
21623;BME280;10973;46.706;12.340;2023-04-10T06:57:35;87745.81;;;2.73;44.80
21623;BME280;10973;46.706;12.340;2023-04-10T07:00:03;87739.50;;;2.83;44.79
21623;BME280;10973;46.706;12.340;2023-04-10T07:02:31;87738.66;;;2.91;44.65
21623;BME280;10973;46.706;12.340;2023-04-10T07:04:58;87735.06;;;3.04;44.42
21623;BME280;10973;46.706;12.340;2023-04-10T07:07:25;87733.28;;;3.17;43.96
21623;BME280;10973;46.706;12.340;2023-04-10T07:09:52;87729.22;;;3.28;43.71
21623;BME280;10973;46.706;12.340;2023-04-10T07:12:20;87736.53;;;3.34;43.12
21623;BME280;10973;46.706;12.340;2023-04-10T07:14:47;87730.50;;;3.42;42.77
21623;BME280;10973;46.706;12.340;2023-04-10T07:17:14;87734.41;;;3.48;42.24
21623;BME280;10973;46.706;12.340;2023-04-10T07:19:41;87725.66;;;3.53;41.79
21623;BME280;10973;46.706;12.340;2023-04-10T07:22:08;87725.78;;;3.56;41.82
21623;BME280;10973;46.706;12.340;2023-04-10T07:24:36;87728.16;;;3.61;41.11
21623;BME280;10973;46.706;12.340;2023-04-10T07:27:03;87729.28;;;3.73;40.74
21623;BME280;10973;46.706;12.340;2023-04-10T07:29:30;87718.38;;;3.79;41.12
21623;BME280;10973;46.706;12.340;2023-04-10T07:31:57;87716.94;;;3.82;41.25
21623;BME280;10973;46.706;12.340;2023-04-10T07:34:25;87719.72;;;3.97;40.97
21623;BME280;10973;46.706;12.340;2023-04-10T07:36:53;87716.25;;;4.05;41.11
21623;BME280;10973;46.706;12.340;2023-04-10T07:39:20;87710.69;;;4.07;40.42
21623;BME280;10973;46.706;12.340;2023-04-10T07:41:47;87708.44;;;4.17;40.46
21623;BME280;10973;46.706;12.340;2023-04-10T07:44:14;87712.34;;;4.23;40.41
21623;BME280;10973;46.706;12.340;2023-04-10T07:46:42;87709.41;;;4.25;40.10
21623;BME280;10973;46.706;12.340;2023-04-10T07:49:09;87713.25;;;4.40;39.98
21623;BME280;10973;46.706;12.340;2023-04-10T07:51:36;87706.41;;;4.47;40.01
21623;BME280;10973;46.706;12.340;2023-04-10T07:54:04;87715.44;;;4.50;40.27
21623;BME280;10973;46.706;12.340;2023-04-10T07:56:31;87709.34;;;4.58;39.82
21623;BME280;10973;46.706;12.340;2023-04-10T07:58:59;87709.91;;;4.63;38.70
21623;BME280;10973;46.706;12.340;2023-04-10T08:01:27;87706.75;;;4.70;38.42
21623;BME280;10973;46.706;12.340;2023-04-10T08:03:55;87706.06;;;4.85;38.33
21623;BME280;10973;46.706;12.340;2023-04-10T08:06:22;87705.22;;;4.81;36.86
21623;BME280;10973;46.706;12.340;2023-04-10T08:08:50;87703.88;;;4.87;37.18
21623;BME280;10973;46.706;12.340;2023-04-10T08:11:46;87699.72;;;4.98;36.16
21623;BME280;10973;46.706;12.340;2023-04-10T08:14:14;87706.03;;;5.09;36.51
21623;BME280;10973;46.706;12.340;2023-04-10T08:16:44;87699.16;;;5.17;35.37
21623;BME280;10973;46.706;12.340;2023-04-10T08:19:12;87701.31;;;5.27;35.38
21623;BME280;10973;46.706;12.340;2023-04-10T08:21:39;87695.19;;;5.35;35.68
21623;BME280;10973;46.706;12.340;2023-04-10T08:24:06;87697.66;;;5.43;35.48
21623;BME280;10973;46.706;12.340;2023-04-10T08:26:33;87694.16;;;5.51;35.35
21623;BME280;10973;46.706;12.340;2023-04-10T08:29:01;87693.69;;;5.61;35.25
21623;BME280;10973;46.706;12.340;2023-04-10T08:31:28;87690.19;;;5.69;34.17
21623;BME280;10973;46.706;12.340;2023-04-10T08:33:56;87681.00;;;5.75;33.94
21623;BME280;10973;46.706;12.340;2023-04-10T08:36:25;87685.56;;;5.78;33.42
21623;BME280;10973;46.706;12.340;2023-04-10T08:38:52;87689.91;;;5.87;33.74
21623;BME280;10973;46.706;12.340;2023-04-10T08:41:20;87689.50;;;6.00;33.60
21623;BME280;10973;46.706;12.340;2023-04-10T08:43:47;87680.00;;;6.08;33.40
21623;BME280;10973;46.706;12.340;2023-04-10T08:46:15;87679.94;;;6.20;32.80
21623;BME280;10973;46.706;12.340;2023-04-10T08:48:52;87677.75;;;6.22;32.58
21623;BME280;10973;46.706;12.340;2023-04-10T08:51:26;87674.78;;;6.23;33.50
21623;BME280;10973;46.706;12.340;2023-04-10T08:54:05;87671.75;;;6.37;33.06
21623;BME280;10973;46.706;12.340;2023-04-10T08:56:34;87669.06;;;6.49;33.00
21623;BME280;10973;46.706;12.340;2023-04-10T08:59:04;87665.16;;;6.59;32.71
21623;BME280;10973;46.706;12.340;2023-04-10T09:01:31;87656.28;;;6.63;32.70
21623;BME280;10973;46.706;12.340;2023-04-10T09:03:59;87657.13;;;6.67;32.47
21623;BME280;10973;46.706;12.340;2023-04-10T09:06:27;87656.78;;;6.69;31.78
21623;BME280;10973;46.706;12.340;2023-04-10T09:08:54;87658.94;;;6.82;32.39
21623;BME280;10973;46.706;12.340;2023-04-10T09:11:21;87659.13;;;6.89;32.81
21623;BME280;10973;46.706;12.340;2023-04-10T09:13:48;87659.47;;;6.88;30.65
21623;BME280;10973;46.706;12.340;2023-04-10T09:16:15;87655.06;;;6.92;31.58
21623;BME280;10973;46.706;12.340;2023-04-10T09:18:50;87658.06;;;7.09;30.73
21623;BME280;10973;46.706;12.340;2023-04-10T09:21:20;87656.00;;;7.18;29.99
21623;BME280;10973;46.706;12.340;2023-04-10T09:23:48;87653.94;;;7.28;30.26
21623;BME280;10973;46.706;12.340;2023-04-10T09:26:29;87648.28;;;7.26;29.52
21623;BME280;10973;46.706;12.340;2023-04-10T09:29:06;87649.34;;;7.40;29.48
21623;BME280;10973;46.706;12.340;2023-04-10T09:36:55;87651.91;;;7.56;30.89
21623;BME280;10973;46.706;12.340;2023-04-10T09:39:38;87651.00;;;7.67;30.17
21623;BME280;10973;46.706;12.340;2023-04-10T09:42:05;87640.66;;;7.74;29.73
21623;BME280;10973;46.706;12.340;2023-04-10T09:44:38;87639.44;;;7.91;29.34
21623;BME280;10973;46.706;12.340;2023-04-10T09:47:26;87642.47;;;7.93;29.83
21623;BME280;10973;46.706;12.340;2023-04-10T09:49:58;87639.44;;;7.91;28.72
21623;BME280;10973;46.706;12.340;2023-04-10T09:52:34;87633.56;;;7.98;29.34
21623;BME280;10973;46.706;12.340;2023-04-10T09:55:04;87633.16;;;7.96;29.40
21623;BME280;10973;46.706;12.340;2023-04-10T09:57:33;87638.72;;;8.13;28.84
21623;BME280;10973;46.706;12.340;2023-04-10T10:00:04;87632.41;;;8.18;28.62
21623;BME280;10973;46.706;12.340;2023-04-10T10:02:36;87630.38;;;8.27;28.71
21623;BME280;10973;46.706;12.340;2023-04-10T10:05:05;87621.50;;;8.35;28.70
21623;BME280;10973;46.706;12.340;2023-04-10T10:07:34;87623.88;;;8.43;29.13
21623;BME280;10973;46.706;12.340;2023-04-10T10:10:02;87617.75;;;8.58;28.35
21623;BME280;10973;46.706;12.340;2023-04-10T10:12:49;87613.31;;;8.63;28.84
21623;BME280;10973;46.706;12.340;2023-04-10T10:18:11;87605.09;;;8.90;28.71
21623;BME280;10973;46.706;12.340;2023-04-10T10:20:44;87603.81;;;9.07;27.80
21623;BME280;10973;46.706;12.340;2023-04-10T10:23:13;87599.94;;;9.27;27.37
21623;BME280;10973;46.706;12.340;2023-04-10T10:25:43;87598.25;;;9.42;26.28
21623;BME280;10973;46.706;12.340;2023-04-10T10:28:13;87593.56;;;9.58;25.99
21623;BME280;10973;46.706;12.340;2023-04-10T10:30:41;87588.13;;;9.73;24.92
21623;BME280;10973;46.706;12.340;2023-04-10T10:33:10;87595.84;;;9.92;26.09
21623;BME280;10973;46.706;12.340;2023-04-10T10:35:39;87593.97;;;10.30;25.67
21623;BME280;10973;46.706;12.340;2023-04-10T10:38:08;87593.09;;;10.59;24.73
21623;BME280;10973;46.706;12.340;2023-04-10T10:40:59;87588.59;;;11.10;23.28
21623;BME280;10973;46.706;12.340;2023-04-10T10:43:59;87586.66;;;11.69;21.60
21623;BME280;10973;46.706;12.340;2023-04-10T10:46:48;87582.31;;;12.22;21.87
21623;BME280;10973;46.706;12.340;2023-04-10T10:49:17;87579.75;;;12.71;21.13
21623;BME280;10973;46.706;12.340;2023-04-10T10:51:50;87574.06;;;13.29;21.22
21623;BME280;10973;46.706;12.340;2023-04-10T10:54:34;87556.50;;;13.99;20.61
21623;BME280;10973;46.706;12.340;2023-04-10T10:57:47;87561.16;;;14.53;17.81
21623;BME280;10973;46.706;12.340;2023-04-10T11:00:15;87563.19;;;14.86;17.31
21623;BME280;10973;46.706;12.340;2023-04-10T11:02:43;87562.53;;;15.23;18.00
21623;BME280;10973;46.706;12.340;2023-04-10T11:05:50;87555.84;;;15.90;17.76
21623;BME280;10973;46.706;12.340;2023-04-10T11:08:36;87545.94;;;16.58;16.30
21623;BME280;10973;46.706;12.340;2023-04-10T11:11:12;87543.66;;;17.09;15.92
21623;BME280;10973;46.706;12.340;2023-04-10T11:13:42;87541.50;;;17.51;15.45
21623;BME280;10973;46.706;12.340;2023-04-10T11:19:06;87537.84;;;18.46;14.73
21623;BME280;10973;46.706;12.340;2023-04-10T11:22:03;87534.97;;;18.73;14.40
21623;BME280;10973;46.706;12.340;2023-04-10T11:24:54;87534.84;;;18.96;15.00
21623;BME280;10973;46.706;12.340;2023-04-10T11:27:43;87534.66;;;19.39;13.88
21623;BME280;10973;46.706;12.340;2023-04-10T11:30:35;87522.53;;;19.35;13.75
21623;BME280;10973;46.706;12.340;2023-04-10T11:33:04;87523.50;;;19.08;13.60
21623;BME280;10973;46.706;12.340;2023-04-10T11:35:32;87518.38;;;18.82;14.05
21623;BME280;10973;46.706;12.340;2023-04-10T11:38:13;87520.34;;;18.62;15.08
21623;BME280;10973;46.706;12.340;2023-04-10T11:40:59;87515.09;;;18.38;14.73
21623;BME280;10973;46.706;12.340;2023-04-10T11:43:27;87510.56;;;18.35;14.63
21623;BME280;10973;46.706;12.340;2023-04-10T11:46:07;87509.34;;;18.20;14.60
21623;BME280;10973;46.706;12.340;2023-04-10T11:48:35;87501.97;;;18.08;15.24
21623;BME280;10973;46.706;12.340;2023-04-10T11:51:08;87507.50;;;17.98;15.26
21623;BME280;10973;46.706;12.340;2023-04-10T11:53:37;87498.41;;;17.95;14.66
21623;BME280;10973;46.706;12.340;2023-04-10T11:56:13;87487.34;;;17.97;15.41
21623;BME280;10973;46.706;12.340;2023-04-10T11:58:40;87500.06;;;17.69;16.60
21623;BME280;10973;46.706;12.340;2023-04-10T12:01:07;87492.31;;;17.75;15.00
21623;BME280;10973;46.706;12.340;2023-04-10T12:03:38;87485.00;;;17.79;15.53
21623;BME280;10973;46.706;12.340;2023-04-10T12:06:14;87480.97;;;17.91;15.20
21623;BME280;10973;46.706;12.340;2023-04-10T12:08:47;87482.69;;;18.01;15.93
21623;BME280;10973;46.706;12.340;2023-04-10T12:11:21;87481.19;;;18.00;15.94
21623;BME280;10973;46.706;12.340;2023-04-10T12:13:53;87481.06;;;17.87;15.02
21623;BME280;10973;46.706;12.340;2023-04-10T12:16:21;87479.78;;;17.52;15.04
21623;BME280;10973;46.706;12.340;2023-04-10T12:18:49;87479.38;;;17.54;15.61
21623;BME280;10973;46.706;12.340;2023-04-10T12:21:17;87474.41;;;17.56;16.05
21623;BME280;10973;46.706;12.340;2023-04-10T12:23:45;87477.28;;;17.65;15.50
21623;BME280;10973;46.706;12.340;2023-04-10T12:26:15;87469.44;;;17.77;14.77
21623;BME280;10973;46.706;12.340;2023-04-10T12:28:52;87471.34;;;17.77;13.98
21623;BME280;10973;46.706;12.340;2023-04-10T12:31:34;87468.47;;;17.45;13.97
21623;BME280;10973;46.706;12.340;2023-04-10T12:34:03;87455.50;;;17.47;13.95
21623;BME280;10973;46.706;12.340;2023-04-10T12:36:32;87447.75;;;17.56;14.20
21623;BME280;10973;46.706;12.340;2023-04-10T12:39:03;87449.25;;;17.76;14.35
21623;BME280;10973;46.706;12.340;2023-04-10T12:41:33;87440.84;;;17.98;15.45
21623;BME280;10973;46.706;12.340;2023-04-10T12:44:13;87441.09;;;18.23;15.76
21623;BME280;10973;46.706;12.340;2023-04-10T12:46:41;87450.03;;;18.32;15.48
21623;BME280;10973;46.706;12.340;2023-04-10T12:49:14;87441.88;;;18.39;15.16
21623;BME280;10973;46.706;12.340;2023-04-10T12:51:48;87433.47;;;18.41;14.05
21623;BME280;10973;46.706;12.340;2023-04-10T12:54:35;87425.59;;;18.34;14.45
21623;BME280;10973;46.706;12.340;2023-04-10T12:57:03;87424.22;;;18.45;15.35
21623;BME280;10973;46.706;12.340;2023-04-10T12:59:31;87430.91;;;18.53;14.19
21623;BME280;10973;46.706;12.340;2023-04-10T13:01:58;87421.78;;;18.35;13.59
21623;BME280;10973;46.706;12.340;2023-04-10T13:04:28;87427.78;;;18.39;14.54
21623;BME280;10973;46.706;12.340;2023-04-10T13:06:56;87436.59;;;18.36;14.61
21623;BME280;10973;46.706;12.340;2023-04-10T13:09:23;87428.34;;;18.30;13.87
21623;BME280;10973;46.706;12.340;2023-04-10T13:11:51;87422.13;;;18.17;14.72
21623;BME280;10973;46.706;12.340;2023-04-10T13:14:18;87424.56;;;18.12;14.05
21623;BME280;10973;46.706;12.340;2023-04-10T13:16:45;87414.59;;;17.96;14.03
21623;BME280;10973;46.706;12.340;2023-04-10T13:19:15;87418.91;;;17.90;13.97
21623;BME280;10973;46.706;12.340;2023-04-10T13:21:42;87417.88;;;17.84;14.07
21623;BME280;10973;46.706;12.340;2023-04-10T13:24:10;87407.97;;;17.85;15.07
21623;BME280;10973;46.706;12.340;2023-04-10T13:26:37;87407.97;;;17.85;15.12
21623;BME280;10973;46.706;12.340;2023-04-10T13:29:04;87410.59;;;17.68;14.79
21623;BME280;10973;46.706;12.340;2023-04-10T13:31:31;87405.88;;;17.76;15.49
21623;BME280;10973;46.706;12.340;2023-04-10T13:33:59;87414.28;;;17.55;14.04